Time;durP1;ratioP1;P1;durP2;ratioP2;P2;SDS_P1;SDS_P2;PMS_P1;PMS_P2;Temp;Humidity;BMP_temperature;BMP_pressure;BME280_temperature;BME280_humidity;BME280_pressure;Samples;Min_cycle;Max_cycle;Signal;HPM_P1;HPM_P2
2022/08/27 00:00:16;;;;;;;8.73;2.78;;;16.30;99.90;;;;;;5013196;28;20097;-73
2022/08/27 00:03:02;;;;;;;7.68;3.03;;;16.30;99.90;;;;;;4996773;28;20046;-73
2022/08/27 00:05:48;;;;;;;5.43;2.90;;;16.20;99.90;;;;;;4996407;28;20049;-73
2022/08/27 00:08:34;;;;;;;9.43;3.20;;;16.30;99.90;;;;;;4996720;28;20509;-73
2022/08/27 00:11:24;;;;;;;9.70;2.90;;;16.20;99.90;;;;;;4996400;28;20050;-72
2022/08/27 00:14:10;;;;;;;8.18;2.85;;;16.20;99.90;;;;;;4996347;28;20045;-74
2022/08/27 00:16:56;;;;;;;8.55;3.13;;;16.20;99.90;;;;;;4997144;28;20168;-73
2022/08/27 00:19:43;;;;;;;10.38;3.28;;;16.20;99.90;;;;;;4996012;28;20091;-73
2022/08/27 00:22:28;;;;;;;8.07;3.47;;;16.20;99.90;;;;;;4983819;28;20100;-72
2022/08/27 00:25:14;;;;;;;6.75;3.38;;;16.20;99.90;;;;;;4991804;28;20077;-73
2022/08/27 00:28:00;;;;;;;6.57;3.30;;;16.20;99.90;;;;;;4977281;28;20421;-73
2022/08/27 00:30:46;;;;;;;9.10;3.13;;;16.20;99.90;;;;;;4994390;28;20068;-74
2022/08/27 00:33:33;;;;;;;11.98;3.17;;;16.30;99.90;;;;;;4996582;28;20057;-73
2022/08/27 00:36:20;;;;;;;9.07;3.10;;;16.30;99.90;;;;;;5012711;28;20551;-73
2022/08/27 00:39:06;;;;;;;10.07;3.22;;;16.30;99.90;;;;;;4995485;28;20054;-73
2022/08/27 00:41:52;;;;;;;6.05;3.22;;;16.30;99.90;;;;;;4995651;28;20086;-73
2022/08/27 00:44:38;;;;;;;10.45;3.40;;;16.30;99.90;;;;;;4993534;28;20046;-73
2022/08/27 00:47:27;;;;;;;6.22;3.20;;;16.30;99.90;;;;;;4995014;28;20128;-73
2022/08/27 00:50:17;;;;;;;10.18;3.50;;;16.30;99.90;;;;;;4994336;28;20076;-73
2022/08/27 00:53:11;;;;;;;10.98;3.45;;;16.30;99.90;;;;;;4995183;28;20056;-72
2022/08/27 00:56:11;;;;;;;10.25;3.70;;;16.30;99.90;;;;;;4992211;28;20046;-74
2022/08/27 00:58:57;;;;;;;6.57;3.42;;;16.30;99.90;;;;;;4981483;28;20324;-73
2022/08/27 01:05:01;;;;;;;6.35;3.10;;;16.30;99.90;;;;;;4997040;28;20053;-72
2022/08/27 01:07:50;;;;;;;10.73;3.63;;;16.30;99.90;;;;;;4994719;28;20120;-73
2022/08/27 01:10:37;;;;;;;10.48;3.20;;;16.30;99.90;;;;;;4994336;28;20448;-72
2022/08/27 01:13:27;;;;;;;7.13;3.15;;;16.30;99.90;;;;;;4976922;28;20058;-73
2022/08/27 01:16:19;;;;;;;8.27;3.15;;;16.30;99.90;;;;;;4994527;28;20386;-73
2022/08/27 01:19:10;;;;;;;8.32;3.30;;;16.30;99.90;;;;;;5011280;28;20386;-73
2022/08/27 01:22:18;;;;;;;8.15;3.90;;;16.20;99.90;;;;;;4994417;28;20056;-74
2022/08/27 01:25:08;;;;;;;10.73;3.30;;;16.20;99.90;;;;;;4995129;28;20037;-73
2022/08/27 01:27:58;;;;;;;7.25;3.08;;;16.20;99.90;;;;;;4994286;28;20069;-73
2022/08/27 01:30:44;;;;;;;6.55;3.17;;;16.20;99.90;;;;;;4994518;28;20088;-73
2022/08/27 01:33:30;;;;;;;9.38;3.40;;;16.20;99.90;;;;;;4994906;28;20061;-73
2022/08/27 01:36:16;;;;;;;6.30;3.25;;;16.20;99.90;;;;;;5011846;28;20053;-73
2022/08/27 01:39:02;;;;;;;9.35;3.60;;;16.20;99.90;;;;;;4996042;28;20050;-73
2022/08/27 01:41:48;;;;;;;8.98;3.35;;;16.10;99.90;;;;;;4995921;28;20069;-73
2022/08/27 01:44:46;;;;;;;8.10;3.60;;;16.20;99.90;;;;;;5004524;28;20096;-73
2022/08/27 01:47:33;;;;;;;11.35;4.00;;;16.20;99.90;;;;;;4989956;28;20132;-73
2022/08/27 01:50:22;;;;;;;8.68;3.30;;;16.20;99.90;;;;;;4994287;28;20500;-73
2022/08/27 01:53:13;;;;;;;6.78;3.03;;;16.20;99.90;;;;;;4993732;28;20060;-73
2022/08/27 01:55:59;;;;;;;7.13;3.70;;;16.20;99.90;;;;;;4994803;28;20049;-73
2022/08/27 01:58:46;;;;;;;9.38;3.78;;;16.10;99.90;;;;;;5011420;28;20501;-73
2022/08/27 02:01:31;;;;;;;6.70;3.40;;;16.20;99.90;;;;;;5012193;28;20069;-73
2022/08/27 02:04:18;;;;;;;8.63;3.53;;;16.20;99.90;;;;;;4994862;28;20073;-72
2022/08/27 02:07:04;;;;;;;7.90;3.35;;;16.20;99.90;;;;;;5011009;28;20050;-73
2022/08/27 02:09:50;;;;;;;8.82;3.40;;;16.10;99.90;;;;;;4991883;28;20050;-73
2022/08/27 02:12:36;;;;;;;9.07;3.78;;;16.20;99.90;;;;;;4994820;28;20458;-73
2022/08/27 02:15:23;;;;;;;9.25;3.85;;;16.20;99.90;;;;;;4992773;28;20057;-73
2022/08/27 02:18:10;;;;;;;10.45;4.15;;;16.10;99.90;;;;;;4995075;28;20107;-74
2022/08/27 02:20:56;;;;;;;7.65;3.78;;;16.10;99.90;;;;;;4995418;28;20053;-73
2022/08/27 02:23:44;;;;;;;6.07;3.20;;;16.10;99.90;;;;;;4993510;28;20141;-72
2022/08/27 02:26:30;;;;;;;5.80;3.40;;;16.10;99.90;;;;;;4994197;28;20113;-73
2022/08/27 02:29:16;;;;;;;7.07;3.80;;;16.10;99.90;;;;;;4992953;28;20045;-73
2022/08/27 02:32:02;;;;;;;7.93;3.35;;;16.10;99.90;;;;;;4994020;28;20390;-73
2022/08/27 02:34:48;;;;;;;9.57;3.70;;;16.10;99.90;;;;;;4997792;28;20058;-73
2022/08/27 02:37:36;;;;;;;9.95;3.67;;;16.10;99.90;;;;;;4994157;28;20135;-73
2022/08/27 02:40:23;;;;;;;10.55;4.22;;;16.10;99.90;;;;;;4987081;28;20054;-73
2022/08/27 02:43:09;;;;;;;6.57;3.95;;;16.10;99.90;;;;;;4992766;28;20050;-73
2022/08/27 02:45:56;;;;;;;7.35;3.72;;;16.10;99.90;;;;;;4993934;28;20046;-73
2022/08/27 02:48:42;;;;;;;10.35;4.38;;;16.00;99.90;;;;;;4993461;28;20058;-73
2022/08/27 02:51:29;;;;;;;5.28;3.53;;;16.00;99.90;;;;;;4994518;28;20046;-73
2022/08/27 02:54:15;;;;;;;14.40;4.35;;;16.00;99.90;;;;;;4994012;28;20177;-72
2022/08/27 02:57:01;;;;;;;8.10;3.70;;;16.00;99.90;;;;;;4993049;28;20045;-73
2022/08/27 02:59:47;;;;;;;8.77;3.65;;;16.00;99.90;;;;;;5009877;28;20046;-73
2022/08/27 03:02:34;;;;;;;4.38;3.38;;;15.90;99.90;;;;;;5007583;28;20100;-72
2022/08/27 03:05:20;;;;;;;7.35;3.70;;;16.00;99.90;;;;;;5013134;28;20053;-73
2022/08/27 03:08:06;;;;;;;8.30;4.00;;;15.90;99.90;;;;;;4998143;28;20419;-73
2022/08/27 03:10:56;;;;;;;7.15;4.10;;;15.90;99.90;;;;;;4994941;28;20498;-73
2022/08/27 03:13:42;;;;;;;8.48;3.92;;;15.90;99.90;;;;;;4997021;28;20046;-73
2022/08/27 03:16:28;;;;;;;7.80;3.50;;;15.90;99.90;;;;;;4997470;28;20428;-73
2022/08/27 03:19:14;;;;;;;10.20;4.20;;;15.80;99.90;;;;;;4996392;28;20046;-73
2022/08/27 03:22:00;;;;;;;8.90;3.85;;;15.90;99.90;;;;;;5014015;28;20505;-73
2022/08/27 03:24:46;;;;;;;9.27;3.70;;;15.90;99.90;;;;;;4996910;28;20045;-72
2022/08/27 03:27:31;;;;;;;8.65;3.70;;;15.90;99.90;;;;;;4985571;28;20055;-72
2022/08/27 03:30:20;;;;;;;7.20;3.50;;;15.90;99.90;;;;;;4997241;28;20053;-73
2022/08/27 03:33:07;;;;;;;9.27;3.70;;;15.80;99.90;;;;;;4997624;28;20057;-73
2022/08/27 03:35:53;;;;;;;5.38;3.58;;;15.90;99.90;;;;;;4997698;28;20054;-73
2022/08/27 03:38:39;;;;;;;7.38;3.83;;;15.90;99.90;;;;;;4996368;28;20505;-73
2022/08/27 03:41:25;;;;;;;7.18;3.67;;;15.90;99.90;;;;;;4996128;28;20057;-73
2022/08/27 03:44:11;;;;;;;8.07;3.75;;;15.80;99.90;;;;;;4995775;28;20050;-73
2022/08/27 03:46:57;;;;;;;7.40;3.55;;;15.90;99.90;;;;;;5002961;28;20081;-73
2022/08/27 03:49:42;;;;;;;8.05;3.85;;;15.90;99.90;;;;;;5014426;28;20145;-73
2022/08/27 03:52:28;;;;;;;6.00;3.60;;;15.80;99.90;;;;;;4996806;28;20050;-73
2022/08/27 03:55:14;;;;;;;5.63;3.22;;;15.80;99.90;;;;;;5012544;28;20095;-72
2022/08/27 03:58:00;;;;;;;5.80;3.22;;;15.80;99.90;;;;;;4996625;28;20058;-72
2022/08/27 04:00:47;;;;;;;5.55;3.22;;;15.80;99.90;;;;;;5000880;28;20077;-73
2022/08/27 04:03:34;;;;;;;8.15;3.65;;;15.70;99.90;;;;;;4996510;28;20497;-73
2022/08/27 04:06:21;;;;;;;7.03;3.35;;;15.60;99.90;;;;;;4996075;28;20127;-73
2022/08/27 04:09:07;;;;;;;6.00;3.75;;;15.60;99.90;;;;;;4995737;28;20100;-73
2022/08/27 04:11:54;;;;;;;6.88;3.60;;;15.60;99.90;;;;;;4986419;28;20054;-73
2022/08/27 04:14:40;;;;;;;7.72;3.72;;;15.50;99.90;;;;;;4996246;28;20088;-73
2022/08/27 04:17:26;;;;;;;7.22;3.80;;;15.40;99.90;;;;;;4987910;28;20061;-73
2022/08/27 04:20:12;;;;;;;6.90;3.72;;;15.50;99.90;;;;;;4995267;28;20135;-73
2022/08/27 04:22:58;;;;;;;11.88;3.50;;;15.40;99.90;;;;;;4996648;28;20413;-73
2022/08/27 04:25:45;;;;;;;10.95;3.67;;;15.40;99.90;;;;;;4992186;28;20497;-73
2022/08/27 04:28:31;;;;;;;6.22;3.47;;;15.40;99.90;;;;;;4977664;28;20116;-72
2022/08/27 04:31:19;;;;;;;7.72;4.00;;;15.40;99.90;;;;;;4976149;28;20580;-73
2022/08/27 04:34:06;;;;;;;6.95;3.30;;;15.40;99.90;;;;;;4977196;28;20050;-73
2022/08/27 04:36:56;;;;;;;7.25;3.75;;;15.40;99.90;;;;;;4991524;28;20045;-73
2022/08/27 04:39:42;;;;;;;6.18;3.35;;;15.40;99.90;;;;;;4995044;28;20073;-73
2022/08/27 04:42:28;;;;;;;9.70;3.75;;;15.50;99.90;;;;;;5011663;28;20111;-73
2022/08/27 04:45:14;;;;;;;10.02;3.85;;;15.40;99.90;;;;;;4993962;28;20053;-73
2022/08/27 04:48:00;;;;;;;6.85;3.50;;;15.40;99.90;;;;;;5011095;28;20136;-73
2022/08/27 04:50:47;;;;;;;6.05;3.35;;;15.50;99.90;;;;;;4993509;28;20476;-72
2022/08/27 04:53:32;;;;;;;6.63;3.17;;;15.60;99.90;;;;;;4995374;28;20061;-73
2022/08/27 04:56:22;;;;;;;6.72;3.53;;;15.60;99.90;;;;;;4974127;28;20054;-73
2022/08/27 04:59:09;;;;;;;5.95;3.55;;;15.60;99.90;;;;;;4974313;28;20050;-73
2022/08/27 05:01:55;;;;;;;6.00;3.45;;;15.60;99.90;;;;;;4997799;28;20057;-72
2022/08/27 05:04:41;;;;;;;8.18;3.83;;;15.60;99.90;;;;;;4991252;28;20149;-72
2022/08/27 05:07:27;;;;;;;7.22;3.97;;;15.50;99.90;;;;;;5010619;28;20052;-72
2022/08/27 05:10:13;;;;;;;8.45;3.60;;;15.60;99.90;;;;;;5015304;28;20077;-72
2022/08/27 05:12:58;;;;;;;7.53;3.72;;;15.60;99.90;;;;;;4984395;28;20042;-74
2022/08/27 05:15:45;;;;;;;7.35;3.30;;;15.60;99.90;;;;;;5009494;28;20045;-73
2022/08/27 05:18:32;;;;;;;9.93;3.60;;;15.60;99.90;;;;;;4997252;28;20077;-73
2022/08/27 05:21:22;;;;;;;5.70;3.50;;;15.60;99.90;;;;;;5001895;28;20069;-73
2022/08/27 05:24:08;;;;;;;6.20;3.90;;;15.60;99.90;;;;;;5013813;28;20044;-72
2022/08/27 05:26:54;;;;;;;7.65;3.80;;;15.70;99.90;;;;;;4997852;28;20055;-73
2022/08/27 05:29:39;;;;;;;8.95;4.10;;;15.70;99.90;;;;;;4997991;28;20496;-72
2022/08/27 05:32:25;;;;;;;5.82;3.35;;;15.70;99.90;;;;;;5000946;28;20038;-73
2022/08/27 05:35:11;;;;;;;9.95;3.60;;;15.70;99.90;;;;;;5015027;28;20042;-72
2022/08/27 05:37:58;;;;;;;7.32;4.28;;;15.70;99.90;;;;;;4997441;28;20057;-73
2022/08/27 05:40:46;;;;;;;6.70;3.70;;;15.70;99.90;;;;;;4992860;28;20056;-73
2022/08/27 05:43:32;;;;;;;9.07;3.30;;;15.80;99.90;;;;;;4989981;28;20052;-73
2022/08/27 05:46:21;;;;;;;7.63;3.55;;;15.80;99.90;;;;;;5014030;28;20137;-73
2022/08/27 05:49:08;;;;;;;7.68;3.45;;;15.80;99.90;;;;;;5013962;28;20042;-72
2022/08/27 05:51:54;;;;;;;5.57;3.13;;;15.80;99.90;;;;;;4997951;28;20077;-73
2022/08/27 05:54:40;;;;;;;8.23;3.30;;;15.90;99.90;;;;;;5020046;28;20484;-73
2022/08/27 05:57:26;;;;;;;8.60;3.53;;;15.90;99.90;;;;;;4976895;28;20061;-73
2022/08/27 06:03:16;;;;;;;4.43;2.80;;;16.00;99.90;;;;;;4996039;28;20049;-73
2022/08/27 06:06:05;;;;;;;5.32;2.90;;;16.00;99.90;;;;;;5026467;28;20416;-73
2022/08/27 06:08:53;;;;;;;6.32;3.13;;;16.00;99.90;;;;;;4993337;28;20054;-72
2022/08/27 06:11:39;;;;;;;4.68;2.75;;;16.00;99.90;;;;;;4996243;28;20480;-72
2022/08/27 06:14:26;;;;;;;5.85;3.03;;;16.00;99.90;;;;;;5008921;28;20060;-72
2022/08/27 06:17:12;;;;;;;6.95;3.25;;;16.00;99.90;;;;;;5014109;28;20112;-72
2022/08/27 06:19:58;;;;;;;9.57;3.42;;;16.00;99.90;;;;;;5000790;28;20056;-72
2022/08/27 06:22:44;;;;;;;6.25;3.35;;;15.90;99.90;;;;;;4996423;28;20049;-72
2022/08/27 06:25:31;;;;;;;6.70;3.38;;;15.90;99.90;;;;;;4995497;28;20038;-72
2022/08/27 06:28:20;;;;;;;7.10;3.17;;;15.90;99.90;;;;;;4986905;28;20145;-73
2022/08/27 06:31:12;;;;;;;5.70;3.30;;;15.90;99.90;;;;;;4992106;28;20104;-72
2022/08/27 06:34:01;;;;;;;7.88;3.40;;;16.00;99.90;;;;;;4987072;28;20048;-72
2022/08/27 06:36:46;;;;;;;8.18;3.10;;;16.00;99.90;;;;;;5013930;28;20446;-73
2022/08/27 06:39:34;;;;;;;6.80;2.95;;;16.10;99.90;;;;;;4996425;28;20536;-73
2022/08/27 06:42:20;;;;;;;8.88;3.40;;;16.10;99.90;;;;;;4987141;28;20137;-73
2022/08/27 06:45:07;;;;;;;6.82;3.33;;;16.20;99.90;;;;;;5013429;28;20046;-73
2022/08/27 06:47:54;;;;;;;8.35;3.60;;;16.30;99.90;;;;;;5013275;28;20572;-73
2022/08/27 06:50:41;;;;;;;10.95;3.58;;;16.30;99.90;;;;;;4997203;28;20050;-72
2022/08/27 06:53:27;;;;;;;5.97;3.40;;;16.30;99.90;;;;;;4996913;28;20054;-73
2022/08/27 06:56:15;;;;;;;6.40;3.03;;;16.50;99.90;;;;;;5016434;28;20061;-74
2022/08/27 06:59:03;;;;;;;7.95;3.08;;;16.50;99.90;;;;;;4997585;28;20096;-73
2022/08/27 07:01:50;;;;;;;10.40;3.10;;;16.50;99.90;;;;;;4999412;28;20056;-72
2022/08/27 07:04:36;;;;;;;7.55;2.85;;;16.70;99.90;;;;;;4988526;28;20105;-73
2022/08/27 07:07:22;;;;;;;8.15;2.63;;;16.80;99.90;;;;;;5011339;28;20092;-73
2022/08/27 07:10:08;;;;;;;10.38;2.75;;;17.00;99.90;;;;;;5008961;28;20052;-73
2022/08/27 07:12:54;;;;;;;4.97;2.15;;;17.10;99.90;;;;;;4987027;28;20482;-73
2022/08/27 07:15:40;;;;;;;5.60;2.40;;;17.30;99.90;;;;;;5024810;28;20045;-74
2022/08/27 07:18:27;;;;;;;8.98;2.60;;;17.40;99.90;;;;;;5003424;28;20038;-73
2022/08/27 07:21:13;;;;;;;7.43;2.30;;;17.50;99.90;;;;;;4996680;28;20057;-73
2022/08/27 07:24:04;;;;;;;5.75;2.53;;;17.70;99.90;;;;;;5006937;28;20038;-73
2022/08/27 07:26:50;;;;;;;9.50;2.30;;;17.90;99.90;;;;;;4995107;28;20045;-72
2022/08/27 07:29:36;;;;;;;5.22;2.03;;;17.90;99.90;;;;;;4988470;28;20053;-73
2022/08/27 07:32:22;;;;;;;6.57;2.22;;;18.20;99.90;;;;;;4968652;28;20052;-72
2022/08/27 07:35:08;;;;;;;11.27;2.22;;;18.30;99.90;;;;;;4990848;28;20497;-73
2022/08/27 07:37:54;;;;;;;5.82;1.65;;;18.50;99.90;;;;;;4999367;28;20081;-72
2022/08/27 07:40:40;;;;;;;5.40;1.80;;;18.60;99.90;;;;;;4991697;28;20049;-73
2022/08/27 07:46:30;;;;;;;8.98;2.00;;;19.00;99.90;;;;;;4990647;28;20566;-73
2022/08/27 07:49:17;;;;;;;5.78;1.83;;;19.10;99.90;;;;;;5013372;28;20088;-73
2022/08/27 07:52:03;;;;;;;8.63;1.88;;;19.20;99.90;;;;;;5015781;28;20050;-73
2022/08/27 07:54:50;;;;;;;10.05;2.00;;;19.30;99.90;;;;;;5011929;28;20123;-74
2022/08/27 07:57:37;;;;;;;3.78;1.50;;;19.50;99.90;;;;;;4999964;28;20046;-73
2022/08/27 08:00:22;;;;;;;5.93;1.80;;;19.60;99.90;;;;;;4987854;28;20516;-72
2022/08/27 08:03:10;;;;;;;6.57;1.58;;;19.70;99.90;;;;;;5000752;28;20060;-73
2022/08/27 08:06:01;;;;;;;8.13;1.27;;;19.80;99.90;;;;;;4998539;28;20136;-73
2022/08/27 08:08:46;;;;;;;5.32;1.65;;;19.90;99.90;;;;;;5016304;28;20069;-73
2022/08/27 08:11:33;;;;;;;5.40;1.52;;;20.00;99.90;;;;;;4999627;28;20189;-73
2022/08/27 08:14:19;;;;;;;7.32;1.40;;;20.20;99.90;;;;;;5014538;28;20041;-73
2022/08/27 08:17:05;;;;;;;6.70;1.55;;;20.40;99.90;;;;;;4997894;28;20052;-73
2022/08/27 08:19:52;;;;;;;5.75;1.63;;;20.60;99.90;;;;;;4998237;28;20114;-73
2022/08/27 08:22:38;;;;;;;6.85;1.80;;;20.60;99.90;;;;;;4999847;28;20045;-73
2022/08/27 08:25:24;;;;;;;8.25;1.92;;;20.50;99.90;;;;;;5015524;28;20054;-73
2022/08/27 08:28:10;;;;;;;7.25;1.70;;;20.30;99.90;;;;;;5018548;28;20421;-73
2022/08/27 08:30:57;;;;;;;11.43;1.80;;;20.40;99.90;;;;;;4999115;28;20046;-73
2022/08/27 08:33:45;;;;;;;8.15;1.88;;;20.60;99.90;;;;;;5000978;28;20061;-73
2022/08/27 08:36:31;;;;;;;10.35;1.73;;;20.80;99.90;;;;;;5000585;28;20048;-72
2022/08/27 08:39:18;;;;;;;7.32;1.80;;;21.00;99.90;;;;;;4999678;28;20050;-73
2022/08/27 08:42:09;;;;;;;6.00;1.58;;;21.10;99.90;;;;;;5015248;28;20133;-73
2022/08/27 08:44:58;;;;;;;5.38;1.30;;;21.00;99.90;;;;;;4995846;28;20046;-73
2022/08/27 08:47:55;;;;;;;5.20;1.63;;;21.10;99.90;;;;;;4998058;28;20053;-73
2022/08/27 08:50:53;;;;;;;8.48;1.55;;;21.20;99.90;;;;;;5001986;28;20060;-73
2022/08/27 08:53:53;;;;;;;3.90;1.58;;;21.40;99.90;;;;;;4997434;28;20121;-73
2022/08/27 08:57:02;;;;;;;5.57;1.63;;;21.60;99.90;;;;;;4994335;28;20100;-75
2022/08/27 09:00:00;;;;;;;6.07;1.40;;;21.80;99.90;;;;;;5010647;28;20057;-74
2022/08/27 09:02:53;;;;;;;5.65;1.50;;;22.00;99.90;;;;;;5012466;28;20137;-76
2022/08/27 09:05:46;;;;;;;6.03;1.40;;;22.20;99.90;;;;;;4975997;28;20069;-75
2022/08/27 09:08:36;;;;;;;4.25;1.60;;;22.30;99.90;;;;;;5000961;28;20241;-73
2022/08/27 09:11:42;;;;;;;6.43;1.65;;;22.60;99.90;;;;;;4987554;28;20038;-73
2022/08/27 09:15:06;;;;;;;5.43;1.40;;;22.80;99.90;;;;;;4981398;28;20063;-73
2022/08/27 09:18:02;;;;;;;8.57;1.98;;;22.90;99.90;;;;;;5001645;28;20049;-73
2022/08/27 09:20:53;;;;;;;6.45;1.92;;;22.80;99.90;;;;;;4984679;28;20516;-74
2022/08/27 09:23:44;;;;;;;5.82;1.40;;;22.70;99.90;;;;;;4996343;28;20049;-72
2022/08/27 09:26:38;;;;;;;6.78;1.50;;;22.60;99.90;;;;;;4999764;28;20049;-73
2022/08/27 09:29:27;;;;;;;8.57;1.90;;;22.40;99.90;;;;;;4996245;28;20545;-72
2022/08/27 09:32:13;;;;;;;8.45;1.60;;;22.10;99.90;;;;;;5013690;28;20181;-72
2022/08/27 09:35:03;;;;;;;6.32;1.42;;;22.00;99.90;;;;;;5016427;28;20049;-72
2022/08/27 09:37:53;;;;;;;11.23;1.70;;;22.00;99.90;;;;;;4998982;28;20065;-72
2022/08/27 09:40:47;;;;;;;6.43;1.88;;;22.10;99.90;;;;;;4988558;28;20116;-72
2022/08/27 09:43:35;;;;;;;10.13;1.98;;;22.10;99.90;;;;;;5001898;28;20060;-73
2022/08/27 09:46:24;;;;;;;8.15;1.60;;;22.10;99.90;;;;;;4999997;28;20050;-73
2022/08/27 09:49:13;;;;;;;5.85;1.40;;;22.20;99.90;;;;;;5015179;28;20045;-72
2022/08/27 09:51:59;;;;;;;6.72;1.55;;;22.20;99.90;;;;;;5015484;28;20051;-73
2022/08/27 09:54:46;;;;;;;9.98;1.85;;;22.30;99.90;;;;;;4997604;28;20041;-72
2022/08/27 09:57:38;;;;;;;9.63;1.60;;;22.40;99.90;;;;;;5015298;28;20042;-72
2022/08/27 10:00:37;;;;;;;7.03;1.67;;;22.50;99.90;;;;;;5001817;28;20049;-73
2022/08/27 10:03:24;;;;;;;9.15;1.90;;;22.50;99.90;;;;;;4991652;28;20109;-73
2022/08/27 10:06:10;;;;;;;10.27;1.73;;;22.60;99.90;;;;;;4988251;28;20393;-73
2022/08/27 10:09:04;;;;;;;6.75;1.73;;;22.50;99.90;;;;;;5015124;28;20090;-72
2022/08/27 10:12:04;;;;;;;7.50;1.85;;;22.50;99.90;;;;;;5014459;28;20054;-73
2022/08/27 10:14:55;;;;;;;6.15;1.45;;;22.50;99.90;;;;;;4997646;28;20054;-73
2022/08/27 10:18:08;;;;;;;6.68;1.45;;;22.50;99.90;;;;;;4975205;28;20057;-73
2022/08/27 10:21:19;;;;;;;10.55;1.88;;;22.50;99.90;;;;;;5004707;28;20054;-73
2022/08/27 10:24:20;;;;;;;7.50;1.60;;;22.60;99.90;;;;;;4981730;28;20045;-72
2022/08/27 10:27:26;;;;;;;8.07;1.70;;;22.70;99.90;;;;;;5016357;28;20049;-73
2022/08/27 10:30:23;;;;;;;7.90;1.60;;;23.00;99.90;;;;;;5001709;28;20133;-72
2022/08/27 10:33:43;;;;;;;10.15;1.70;;;23.30;99.40;;;;;;4998075;28;20105;-72
2022/08/27 10:36:50;;;;;;;5.15;1.65;;;23.30;99.50;;;;;;5017943;28;20488;-72
2022/08/27 10:40:07;;;;;;;6.78;1.40;;;23.30;99.60;;;;;;4988406;28;20485;-72
2022/08/27 10:43:30;;;;;;;6.55;1.75;;;23.50;97.90;;;;;;4996734;28;20149;-73
2022/08/27 10:46:29;;;;;;;5.38;1.38;;;23.50;99.20;;;;;;4988033;28;20049;-73
2022/08/27 10:49:37;;;;;;;5.80;1.75;;;23.60;99.20;;;;;;4997496;28;20138;-73
2022/08/27 10:52:32;;;;;;;7.60;1.40;;;23.60;99.00;;;;;;4973962;28;20065;-73
2022/08/27 10:55:30;;;;;;;8.82;2.03;;;23.70;99.40;;;;;;5005975;28;20564;-73
2022/08/27 10:58:42;;;;;;;4.95;1.40;;;23.70;99.00;;;;;;5013287;28;20136;-73
2022/08/27 11:01:49;;;;;;;6.78;1.58;;;23.60;98.10;;;;;;4992595;28;20061;-73
2022/08/27 11:04:45;;;;;;;7.72;1.42;;;23.60;97.80;;;;;;4976195;28;20509;-74
2022/08/27 11:07:42;;;;;;;6.68;1.40;;;23.50;98.50;;;;;;4987764;28;20049;-74
2022/08/27 11:10:32;;;;;;;5.32;1.48;;;23.50;98.50;;;;;;4987899;28;20050;-73
2022/08/27 11:13:31;;;;;;;4.47;1.50;;;23.50;98.80;;;;;;4988282;28;20050;-74
2022/08/27 11:16:23;;;;;;;8.77;1.70;;;23.40;98.40;;;;;;4981553;28;20112;-74
2022/08/27 11:19:35;;;;;;;6.15;1.70;;;23.30;97.70;;;;;;4992562;28;20065;-74
2022/08/27 11:22:46;;;;;;;5.43;1.60;;;23.20;97.40;;;;;;4987152;28;20165;-74
2022/08/27 11:25:43;;;;;;;6.32;1.48;;;23.10;97.60;;;;;;4998972;28;20073;-73
2022/08/27 11:28:36;;;;;;;6.72;1.60;;;23.00;98.10;;;;;;5000250;28;20045;-73
2022/08/27 11:31:25;;;;;;;8.60;1.40;;;23.10;96.70;;;;;;4994444;28;20038;-74
2022/08/27 11:34:20;;;;;;;6.93;1.70;;;23.00;97.70;;;;;;4994554;28;20045;-73
2022/08/27 11:37:21;;;;;;;6.18;1.50;;;23.10;98.00;;;;;;4989815;28;20097;-74
2022/08/27 11:41:01;;;;;;;9.40;2.00;;;23.20;97.10;;;;;;4996745;28;20042;-73
2022/08/27 11:43:47;;;;;;;8.77;1.77;;;23.30;97.50;;;;;;4953880;28;20135;-74
2022/08/27 11:47:08;;;;;;;6.20;1.52;;;23.50;98.00;;;;;;5012728;28;20049;-73
2022/08/27 11:49:57;;;;;;;9.75;2.08;;;23.70;96.90;;;;;;4994586;28;20081;-74
2022/08/27 11:52:53;;;;;;;6.13;1.50;;;23.80;96.90;;;;;;5003459;28;20117;-73
2022/08/27 11:55:39;;;;;;;4.63;1.50;;;23.80;97.00;;;;;;5003940;28;20042;-74
2022/08/27 11:58:28;;;;;;;7.05;1.50;;;24.00;96.50;;;;;;4994813;28;20042;-74
2022/08/27 12:01:29;;;;;;;6.65;1.52;;;24.10;95.90;;;;;;4995834;28;20077;-74
2022/08/27 12:04:30;;;;;;;5.22;1.40;;;24.30;96.10;;;;;;5006249;28;20492;-74
2022/08/27 12:07:16;;;;;;;6.22;1.67;;;24.30;96.00;;;;;;5011668;28;20050;-73
2022/08/27 12:10:17;;;;;;;7.03;1.67;;;24.40;95.60;;;;;;4990284;28;20501;-74
2022/08/27 12:13:03;;;;;;;8.98;1.67;;;24.50;95.20;;;;;;4994877;28;20050;-74
2022/08/27 12:16:08;;;;;;;5.90;1.73;;;24.50;95.00;;;;;;4995430;28;20672;-74
2022/08/27 12:19:15;;;;;;;6.18;1.50;;;24.60;96.00;;;;;;4993062;28;20042;-74
2022/08/27 12:22:12;;;;;;;6.18;1.48;;;24.80;94.40;;;;;;4987820;28;20053;-74
2022/08/27 12:24:58;;;;;;;6.68;1.77;;;25.00;93.40;;;;;;5005703;28;20046;-74
2022/08/27 12:27:55;;;;;;;7.85;1.55;;;25.00;92.90;;;;;;4984990;28;20046;-74
2022/08/27 12:30:48;;;;;;;8.10;1.60;;;25.10;92.20;;;;;;4998287;28;20133;-74
2022/08/27 12:33:48;;;;;;;5.15;1.50;;;25.00;92.30;;;;;;4994988;28;20050;-74
2022/08/27 12:36:35;;;;;;;10.68;1.73;;;25.00;91.10;;;;;;4977984;28;20046;-74
2022/08/27 12:39:31;;;;;;;9.50;1.70;;;25.00;91.20;;;;;;4991669;28;20073;-74
2022/08/27 12:42:20;;;;;;;7.22;1.40;;;24.90;91.60;;;;;;4990750;28;20085;-73
2022/08/27 12:45:06;;;;;;;6.60;1.48;;;24.90;92.60;;;;;;5004381;28;20405;-73
2022/08/27 12:47:54;;;;;;;3.47;1.30;;;25.20;91.60;;;;;;4989095;28;20058;-73
2022/08/27 12:50:40;;;;;;;6.40;1.27;;;25.50;92.00;;;;;;4995253;28;20046;-73
2022/08/27 12:53:32;;;;;;;7.15;1.38;;;26.00;87.20;;;;;;5002025;28;20401;-74
2022/08/27 12:56:39;;;;;;;5.43;1.50;;;26.10;86.00;;;;;;4990332;28;20054;-74
2022/08/27 12:59:45;;;;;;;7.95;1.50;;;26.10;85.90;;;;;;4990284;28;20046;-73
2022/08/27 13:03:09;;;;;;;6.10;1.48;;;25.80;87.60;;;;;;4989993;28;20061;-73
2022/08/27 13:05:57;;;;;;;4.70;1.40;;;25.60;89.00;;;;;;4986170;28;20045;-75
2022/08/27 13:08:44;;;;;;;6.18;1.52;;;25.20;88.70;;;;;;4994288;28;20130;-75
2022/08/27 13:11:33;;;;;;;6.35;1.42;;;25.00;88.80;;;;;;4992712;28;20045;-75
2022/08/27 13:14:25;;;;;;;6.20;1.35;;;24.90;90.00;;;;;;5011226;28;20038;-75
2022/08/27 13:17:20;;;;;;;6.95;1.70;;;24.70;90.00;;;;;;4998029;28;20056;-74
2022/08/27 13:20:18;;;;;;;6.07;1.40;;;24.80;90.60;;;;;;5002792;28;20052;-73
2022/08/27 13:23:12;;;;;;;7.15;1.45;;;25.20;89.40;;;;;;4995087;28;20416;-72
2022/08/27 13:26:10;;;;;;;6.55;1.30;;;25.40;86.20;;;;;;4992144;28;20058;-73
2022/08/27 13:28:57;;;;;;;4.05;1.20;;;25.70;83.20;;;;;;4993092;28;20045;-73
2022/08/27 13:31:44;;;;;;;5.28;1.40;;;26.10;81.50;;;;;;4991672;28;20496;-73
2022/08/27 13:34:35;;;;;;;4.68;1.48;;;26.20;80.50;;;;;;4993529;28;20389;-73
2022/08/27 13:37:38;;;;;;;6.43;1.47;;;26.20;82.60;;;;;;5010038;28;20081;-73
2022/08/27 13:40:29;;;;;;;4.47;1.35;;;26.10;82.00;;;;;;4980763;28;20046;-72
2022/08/27 13:43:16;;;;;;;7.65;1.52;;;25.90;82.50;;;;;;4980450;28;20089;-73
2022/08/27 13:46:08;;;;;;;4.57;1.40;;;25.90;82.30;;;;;;4981532;28;20113;-72
2022/08/27 13:48:57;;;;;;;4.60;1.20;;;25.90;83.60;;;;;;4992735;28;20045;-73
2022/08/27 13:51:44;;;;;;;5.60;1.10;;;26.00;81.30;;;;;;4999924;28;20046;-73
2022/08/27 13:54:31;;;;;;;5.55;1.40;;;26.10;81.10;;;;;;4991700;28;20042;-73
2022/08/27 13:57:27;;;;;;;5.22;1.40;;;26.40;78.70;;;;;;5011517;28;20394;-73
2022/08/27 14:00:27;;;;;;;7.75;1.67;;;26.90;83.50;;;;;;4986838;28;20054;-73
2022/08/27 14:03:34;;;;;;;6.88;1.30;;;27.50;81.20;;;;;;4970517;28;20058;-73
2022/08/27 14:06:25;;;;;;;4.38;1.23;;;27.90;77.40;;;;;;4987973;28;20046;-73
2022/08/27 14:09:28;;;;;;;2.63;0.97;;;27.90;76.20;;;;;;4986932;28;20065;-73
2022/08/27 14:12:37;;;;;;;4.93;1.05;;;27.90;75.30;;;;;;4989148;28;20404;-73
2022/08/27 14:15:27;;;;;;;5.72;1.30;;;28.10;73.00;;;;;;4989637;28;20624;-73
2022/08/27 14:18:33;;;;;;;5.78;1.30;;;28.20;71.40;;;;;;5004350;28;20069;-73
2022/08/27 14:21:20;;;;;;;5.05;1.30;;;27.90;72.50;;;;;;5002174;28;20053;-72
2022/08/27 14:24:06;;;;;;;4.97;1.20;;;27.70;74.00;;;;;;4990312;28;20053;-73
2022/08/27 14:27:01;;;;;;;4.18;1.40;;;27.60;74.50;;;;;;4985043;28;20133;-73
2022/08/27 14:29:48;;;;;;;3.08;1.10;;;27.50;72.60;;;;;;4986897;28;20050;-74
2022/08/27 14:32:34;;;;;;;3.42;1.10;;;27.40;71.30;;;;;;5007232;28;20065;-73
2022/08/27 14:35:20;;;;;;;3.53;0.95;;;26.90;73.70;;;;;;4991442;28;20404;-74
2022/08/27 14:38:17;;;;;;;5.65;1.17;;;26.90;73.90;;;;;;4998972;28;20062;-73
2022/08/27 14:41:03;;;;;;;4.90;1.25;;;27.20;72.90;;;;;;5002991;28;20053;-74
2022/08/27 14:43:49;;;;;;;3.30;1.10;;;27.60;73.00;;;;;;5006113;28;20046;-74
2022/08/27 14:46:35;;;;;;;4.20;1.13;;;27.90;69.80;;;;;;4990512;28;20520;-74
2022/08/27 14:49:30;;;;;;;6.60;1.20;;;28.20;71.10;;;;;;4995653;28;20497;-73
2022/08/27 14:52:16;;;;;;;7.80;1.08;;;28.10;68.70;;;;;;4982023;28;20050;-73
2022/08/27 14:55:02;;;;;;;8.13;1.45;;;27.80;68.80;;;;;;4999141;28;20416;-73